createdAt,value
2018-06-30T00:00:07.346Z,72.17
2018-06-30T00:01:07.343Z,71.64
2018-06-30T00:02:07.325Z,72.08
2018-06-30T00:03:07.317Z,71.73
2018-06-30T00:04:07.312Z,71.57
2018-06-30T00:05:07.291Z,71.77
2018-06-30T00:06:07.282Z,72.38
2018-06-30T00:07:07.273Z,71.57
2018-06-30T00:08:07.262Z,72.58
2018-06-30T00:09:07.258Z,72.38
2018-06-30T00:10:07.238Z,72.58
2018-06-30T00:11:07.225Z,72.38
2018-06-30T00:12:07.215Z,71.77
2018-06-30T00:13:07.224Z,72.48
2018-06-30T00:14:07.228Z,71.88
2018-06-30T00:15:07.181Z,72.28
2018-06-30T00:16:07.169Z,72.28
2018-06-30T00:17:07.158Z,72.58
2018-06-30T00:18:07.147Z,72.78
2018-06-30T00:19:07.242Z,72.31
2018-06-30T00:20:07.126Z,72.82
2018-06-30T00:21:07.114Z,72.11
2018-06-30T00:22:07.108Z,72.82
2018-06-30T00:23:07.097Z,72.31
2018-06-30T00:24:07.093Z,72.52
2018-06-30T00:25:07.073Z,72.82
2018-06-30T00:26:07.059Z,72.72
2018-06-30T00:27:07.051Z,72.82
2018-06-30T00:28:07.040Z,73.12
2018-06-30T00:29:07.038Z,73.22
2018-06-30T00:30:07.017Z,72.92
2018-06-30T00:31:07.007Z,72.82
2018-06-30T00:32:06.994Z,72.11
2018-06-30T00:33:06.986Z,72.11
2018-06-30T00:34:07.008Z,72.31
2018-06-30T00:35:06.960Z,71.97
2018-06-30T00:36:06.950Z,72.82
2018-06-30T00:37:06.940Z,72.92
2018-06-30T00:38:06.930Z,72.21
2018-06-30T00:39:06.927Z,72.82
2018-06-30T00:40:06.906Z,72.21
2018-06-30T00:41:06.899Z,72.92
2018-06-30T00:42:06.885Z,72.82
2018-06-30T00:43:06.877Z,72.61
2018-06-30T00:44:06.872Z,72.38
2018-06-30T00:45:06.853Z,71.70
2018-06-30T00:46:06.853Z,72.61
2018-06-30T00:47:06.828Z,73.33
2018-06-30T00:48:06.820Z,73.43
2018-06-30T00:49:06.819Z,72.82
2018-06-30T00:50:06.811Z,72.28
2018-06-30T00:51:06.786Z,72.92
2018-06-30T00:52:06.774Z,72.72
2018-06-30T00:53:06.763Z,72.31
2018-06-30T00:54:06.775Z,73.02
2018-06-30T00:55:06.743Z,73.02
2018-06-30T00:56:06.744Z,72.82
2018-06-30T00:57:06.727Z,72.61
2018-06-30T00:58:06.710Z,72.85
2018-06-30T00:59:06.708Z,73.22
2018-06-30T01:00:06.701Z,73.36
2018-06-30T01:01:06.677Z,73.26
2018-06-30T01:02:06.667Z,73.57
2018-06-30T01:03:06.666Z,73.57
2018-06-30T01:04:06.655Z,73.36
2018-06-30T01:05:06.634Z,72.75
2018-06-30T01:06:06.620Z,72.96
2018-06-30T01:07:06.613Z,73.46
2018-06-30T01:08:06.602Z,73.77
2018-06-30T01:09:06.602Z,74.07
2018-06-30T01:10:06.576Z,74.07
2018-06-30T01:11:06.591Z,74.78
2018-06-30T01:12:06.564Z,74.07
2018-06-30T01:13:06.549Z,74.68
2018-06-30T01:14:06.546Z,73.77
2018-06-30T01:15:06.523Z,73.87
2018-06-30T01:16:06.511Z,73.80
2018-06-30T01:17:06.499Z,74.21
2018-06-30T01:18:06.488Z,74.71
2018-06-30T01:19:06.494Z,74.82
2018-06-30T01:20:06.468Z,75.12
2018-06-30T01:21:06.464Z,74.82
2018-06-30T01:22:06.445Z,74.62
2018-06-30T01:23:06.433Z,75.05
2018-06-30T01:24:06.421Z,74.85
2018-06-30T01:25:06.449Z,74.75
2018-06-30T01:26:06.401Z,75.52
2018-06-30T01:27:06.390Z,75.32
2018-06-30T01:28:06.380Z,74.55
2018-06-30T01:29:06.366Z,74.55
2018-06-30T01:30:06.381Z,74.62
2018-06-30T01:31:06.344Z,74.92
2018-06-30T01:32:06.338Z,74.31
2018-06-30T01:33:06.324Z,75.02
2018-06-30T01:34:06.328Z,75.12
2018-06-30T01:35:06.311Z,74.95
2018-06-30T01:36:06.290Z,76.07
2018-06-30T01:37:06.278Z,76.17
2018-06-30T01:38:06.269Z,75.97
2018-06-30T01:39:06.259Z,75.97
2018-06-30T01:40:06.261Z,75.97
2018-06-30T01:41:06.238Z,75.76
2018-06-30T01:42:06.225Z,76.07
2018-06-30T01:43:06.213Z,75.80
2018-06-30T01:44:06.206Z,75.80
2018-06-30T01:45:06.203Z,76.07
2018-06-30T01:46:06.179Z,76.48
2018-06-30T01:47:06.169Z,75.80
2018-06-30T01:48:06.161Z,75.67
2018-06-30T01:49:06.147Z,76.01
2018-06-30T01:50:06.149Z,75.97
2018-06-30T01:51:06.125Z,75.90
2018-06-30T01:52:06.117Z,75.87
2018-06-30T01:53:06.116Z,75.76
2018-06-30T01:54:06.091Z,75.67
2018-06-30T01:55:06.108Z,75.76
2018-06-30T01:56:06.075Z,76.07
2018-06-30T01:57:06.057Z,75.67
2018-06-30T01:58:06.050Z,76.07
2018-06-30T01:59:06.036Z,75.80
2018-06-30T02:00:06.050Z,76.28
2018-06-30T02:01:06.015Z,75.76
2018-06-30T02:02:06.007Z,75.97
2018-06-30T02:03:05.993Z,76.17
2018-06-30T02:04:05.981Z,75.67
2018-06-30T02:05:05.981Z,76.68
2018-06-30T02:06:05.962Z,75.76
2018-06-30T02:07:05.949Z,76.17
2018-06-30T02:08:05.943Z,76.07
2018-06-30T02:09:05.927Z,76.07
2018-06-30T02:10:05.926Z,76.78
2018-06-30T02:11:05.905Z,77.29
2018-06-30T02:12:05.894Z,76.98
2018-06-30T02:13:05.882Z,76.17
2018-06-30T02:14:05.909Z,76.17
2018-06-30T02:15:05.878Z,75.87
2018-06-30T02:16:05.866Z,75.67
2018-06-30T02:17:05.839Z,76.17
2018-06-30T02:18:05.828Z,75.76
2018-06-30T02:19:05.825Z,75.87
2018-06-30T02:20:05.816Z,75.87
2018-06-30T02:21:05.800Z,75.76
2018-06-30T02:22:05.812Z,75.67
2018-06-30T02:23:05.772Z,75.76
2018-06-30T02:24:05.762Z,75.76
2018-06-30T02:25:05.765Z,76.07
2018-06-30T02:26:05.742Z,76.17
2018-06-30T02:27:05.730Z,75.67
2018-06-30T02:28:05.720Z,75.76
2018-06-30T02:29:05.710Z,75.97
2018-06-30T02:30:05.725Z,75.76
2018-06-30T02:31:05.686Z,76.28
2018-06-30T02:32:05.674Z,76.07
2018-06-30T02:33:05.662Z,76.17
2018-06-30T02:34:05.671Z,76.28
2018-06-30T02:35:05.659Z,76.37
2018-06-30T02:36:05.631Z,75.76
2018-06-30T02:37:05.618Z,75.76
2018-06-30T02:38:05.617Z,75.97
2018-06-30T02:39:05.668Z,75.87
2018-06-30T02:40:05.597Z,75.87
2018-06-30T02:41:05.576Z,75.76
2018-06-30T02:42:05.566Z,75.87
2018-06-30T02:43:05.557Z,75.97
2018-06-30T02:44:05.545Z,75.73
2018-06-30T02:45:05.545Z,76.85
2018-06-30T02:46:05.636Z,76.44
2018-06-30T02:47:05.510Z,76.44
2018-06-30T02:48:05.498Z,76.75
2018-06-30T02:49:05.491Z,76.44
2018-06-30T02:50:05.507Z,75.73
2018-06-30T02:51:05.466Z,75.93
2018-06-30T02:52:05.456Z,75.63
2018-06-30T02:53:05.446Z,75.83
2018-06-30T02:54:05.436Z,75.63
2018-06-30T02:55:05.434Z,76.14
2018-06-30T02:56:05.413Z,76.95
2018-06-30T02:57:05.399Z,77.05
2018-06-30T02:58:05.392Z,77.25
2018-06-30T02:59:05.378Z,76.44
2018-06-30T03:00:05.377Z,76.44
2018-06-30T03:01:05.356Z,76.44
2018-06-30T03:02:05.356Z,76.44
2018-06-30T03:03:05.334Z,76.64
2018-06-30T03:04:05.324Z,76.95
2018-06-30T03:05:05.350Z,76.64
2018-06-30T03:06:05.300Z,76.75
2018-06-30T03:07:05.290Z,76.40
2018-06-30T03:08:05.288Z,76.64
2018-06-30T03:09:05.270Z,76.91
2018-06-30T03:10:05.267Z,76.91
2018-06-30T03:11:05.246Z,76.91
2018-06-30T03:12:05.250Z,76.20
2018-06-30T03:13:05.226Z,77.12
2018-06-30T03:14:05.222Z,77.36
2018-06-30T03:15:05.232Z,76.54
2018-06-30T03:16:05.192Z,76.10
2018-06-30T03:17:05.185Z,75.79
2018-06-30T03:18:05.169Z,75.70
2018-06-30T03:19:05.163Z,76.00
2018-06-30T03:20:05.158Z,75.90
2018-06-30T03:21:05.140Z,76.31
2018-06-30T03:22:05.126Z,76.10
2018-06-30T03:23:05.114Z,75.79
2018-06-30T03:24:05.102Z,75.70
2018-06-30T03:25:05.105Z,75.90
2018-06-30T03:26:05.097Z,76.31
2018-06-30T03:27:05.073Z,76.31
2018-06-30T03:28:05.057Z,76.00
2018-06-30T03:29:05.050Z,75.79
2018-06-30T03:30:05.067Z,75.90
2018-06-30T03:31:05.031Z,75.90
2018-06-30T03:32:05.024Z,75.79
2018-06-30T03:33:05.008Z,75.90
2018-06-30T03:34:04.993Z,75.59
2018-06-30T03:35:04.981Z,75.70
2018-06-30T03:36:05.004Z,77.12
2018-06-30T03:37:04.960Z,76.47
2018-06-30T03:38:04.955Z,76.51
2018-06-30T03:39:04.940Z,76.31
2018-06-30T03:40:04.926Z,76.81
2018-06-30T03:41:04.926Z,76.20
2018-06-30T03:42:04.907Z,76.00
2018-06-30T03:43:04.893Z,75.76
2018-06-30T03:44:04.889Z,76.78
2018-06-30T03:45:04.872Z,76.87
2018-06-30T03:46:04.877Z,77.59
2018-06-30T03:47:04.850Z,77.18
2018-06-30T03:48:04.860Z,78.19
2018-06-30T03:49:04.827Z,77.42
2018-06-30T03:50:04.815Z,76.87
2018-06-30T03:51:04.816Z,76.40
2018-06-30T03:52:04.795Z,76.61
2018-06-30T03:53:04.785Z,77.32
2018-06-30T03:54:04.772Z,77.22
2018-06-30T03:55:04.762Z,76.57
2018-06-30T03:56:04.763Z,75.86
2018-06-30T03:57:04.742Z,75.66
2018-06-30T03:58:04.734Z,76.06
2018-06-30T03:59:04.741Z,75.76
2018-06-30T04:00:04.706Z,76.06
2018-06-30T04:01:04.711Z,76.40
2018-06-30T04:02:04.685Z,77.59
2018-06-30T04:03:04.675Z,77.79
2018-06-30T04:04:04.666Z,76.47
2018-06-30T04:05:04.654Z,76.37
2018-06-30T04:06:04.656Z,77.18
2018-06-30T04:07:04.644Z,77.89
2018-06-30T04:08:04.618Z,77.18
2018-06-30T04:09:04.611Z,77.08
2018-06-30T04:10:04.602Z,77.79
2018-06-30T04:11:04.597Z,77.08
2018-06-30T04:12:04.575Z,77.59
2018-06-30T04:13:04.565Z,76.78
2018-06-30T04:14:04.552Z,78.50
2018-06-30T04:15:04.543Z,77.99
2018-06-30T04:16:04.546Z,78.16
2018-06-30T04:17:04.519Z,77.75
2018-06-30T04:18:04.509Z,77.75
2018-06-30T04:19:04.498Z,77.01
2018-06-30T04:20:04.485Z,77.86
2018-06-30T04:21:04.487Z,77.51
2018-06-30T04:22:04.497Z,77.11
2018-06-30T04:23:04.470Z,78.12
2018-06-30T04:24:04.444Z,77.51
2018-06-30T04:25:04.431Z,77.82
2018-06-30T04:26:04.431Z,77.72
2018-06-30T04:27:04.410Z,77.61
2018-06-30T04:28:04.406Z,77.31
2018-06-30T04:29:04.388Z,76.97
2018-06-30T04:30:04.376Z,76.26
2018-06-30T04:31:04.376Z,75.76
2018-06-30T04:32:04.353Z,75.55
2018-06-30T04:33:04.344Z,75.72
2018-06-30T04:34:04.337Z,75.42
2018-06-30T04:35:04.322Z,75.55
2018-06-30T04:36:04.321Z,75.76
2018-06-30T04:37:04.302Z,74.81
2018-06-30T04:38:04.293Z,75.31
2018-06-30T04:39:04.277Z,75.52
2018-06-30T04:40:04.270Z,74.71
2018-06-30T04:41:04.265Z,74.91
2018-06-30T04:42:04.243Z,75.82
2018-06-30T04:43:04.233Z,75.62
2018-06-30T04:44:04.221Z,75.01
2018-06-30T04:45:04.259Z,75.72
2018-06-30T04:46:04.211Z,74.71
2018-06-30T04:47:04.188Z,75.11
2018-06-30T04:48:04.182Z,74.71
2018-06-30T04:49:04.167Z,74.20
2018-06-30T04:50:04.186Z,74.37
2018-06-30T04:51:04.223Z,74.40
2018-06-30T04:52:04.138Z,74.40
2018-06-30T04:53:04.124Z,74.77
2018-06-30T04:54:04.111Z,74.16
2018-06-30T04:55:04.101Z,74.16
2018-06-30T04:56:04.102Z,74.47
2018-06-30T04:57:04.083Z,74.27
2018-06-30T04:58:04.071Z,74.77
2018-06-30T04:59:04.061Z,74.77
2018-06-30T05:00:04.050Z,74.16
2018-06-30T05:01:04.051Z,73.12
2018-06-30T05:02:04.025Z,74.63
2018-06-30T05:03:04.013Z,73.72
2018-06-30T05:04:04.001Z,73.43
2018-06-30T05:05:03.996Z,73.63
2018-06-30T05:06:04.016Z,73.93
2018-06-30T05:07:03.970Z,73.93
2018-06-30T05:08:03.958Z,73.83
2018-06-30T05:09:03.947Z,72.51
2018-06-30T05:10:03.937Z,73.02
2018-06-30T05:11:03.939Z,73.32
2018-06-30T05:12:03.917Z,71.91
2018-06-30T05:13:03.908Z,72.11
2018-06-30T05:14:03.895Z,72.21
2018-06-30T05:15:03.881Z,71.91
2018-06-30T05:16:03.882Z,71.60
2018-06-30T05:17:03.865Z,71.97
2018-06-30T05:18:03.847Z,71.87
2018-06-30T05:19:03.837Z,71.67
2018-06-30T05:20:03.826Z,71.67
2018-06-30T05:21:03.828Z,70.96
2018-06-30T05:22:03.805Z,71.26
2018-06-30T05:23:03.797Z,72.08
2018-06-30T05:24:03.784Z,71.37
2018-06-30T05:25:03.772Z,71.77
2018-06-30T05:26:03.776Z,71.23
2018-06-30T05:27:03.748Z,71.47
2018-06-30T05:28:03.742Z,70.83
2018-06-30T05:29:03.727Z,71.03
2018-06-30T05:30:03.715Z,69.82
2018-06-30T05:31:03.729Z,69.78
2018-06-30T05:32:03.694Z,69.92
2018-06-30T05:33:03.684Z,70.53
2018-06-30T05:34:03.697Z,70.62
2018-06-30T05:35:03.666Z,70.12
2018-06-30T05:36:03.650Z,70.22
2018-06-30T05:37:03.651Z,70.22
2018-06-30T05:38:03.628Z,70.46
2018-06-30T05:39:03.618Z,70.46
2018-06-30T05:40:03.611Z,70.86
2018-06-30T05:41:03.611Z,70.86
2018-06-30T05:42:03.599Z,70.36
2018-06-30T05:43:03.576Z,70.42
2018-06-30T05:44:03.561Z,70.56
2018-06-30T05:45:03.552Z,70.96
2018-06-30T05:46:03.539Z,70.66
2018-06-30T05:47:03.540Z,70.83
2018-06-30T05:48:03.526Z,70.02
2018-06-30T05:49:03.513Z,70.02
2018-06-30T05:50:03.498Z,69.85
2018-06-30T05:51:03.485Z,70.62
2018-06-30T05:52:03.483Z,70.36
2018-06-30T05:53:03.463Z,70.56
2018-06-30T05:54:03.451Z,70.76
2018-06-30T05:55:03.453Z,71.20
2018-06-30T05:56:03.434Z,70.79
2018-06-30T05:57:03.430Z,71.60
2018-06-30T05:58:03.415Z,70.93
2018-06-30T05:59:03.398Z,70.89
2018-06-30T06:00:03.387Z,71.40
2018-06-30T06:01:03.377Z,71.60
2018-06-30T06:02:03.387Z,70.76
2018-06-30T06:03:03.367Z,70.05
2018-06-30T06:04:03.343Z,70.05
2018-06-30T06:05:03.331Z,69.71
2018-06-30T06:06:03.321Z,70.46
2018-06-30T06:07:03.324Z,70.05
2018-06-30T06:08:03.297Z,69.95
2018-06-30T06:09:03.293Z,69.95
2018-06-30T06:10:03.316Z,69.75
2018-06-30T06:11:03.265Z,69.62
2018-06-30T06:12:03.267Z,69.75
2018-06-30T06:13:03.245Z,69.75
2018-06-30T06:14:03.239Z,69.65
2018-06-30T06:15:03.222Z,69.75
2018-06-30T06:16:03.212Z,70.25
2018-06-30T06:17:03.211Z,69.75
2018-06-30T06:18:03.191Z,69.85
2018-06-30T06:19:03.182Z,69.51
2018-06-30T06:20:03.219Z,68.47
2018-06-30T06:21:03.934Z,68.87
2018-06-30T06:22:03.174Z,68.47
2018-06-30T06:23:03.146Z,68.87
2018-06-30T06:24:03.126Z,69.18
2018-06-30T06:25:03.114Z,68.80
2018-06-30T06:26:03.100Z,69.11
2018-06-30T06:27:03.099Z,69.31
2018-06-30T06:28:03.080Z,69.62
2018-06-30T06:29:03.067Z,69.82
2018-06-30T06:30:03.059Z,69.42
2018-06-30T06:31:03.065Z,69.21
2018-06-30T06:32:03.046Z,69.42
2018-06-30T06:33:03.022Z,68.47
2018-06-30T06:34:03.020Z,68.67
2018-06-30T06:35:03.011Z,68.07
2018-06-30T06:36:03.014Z,67.43
2018-06-30T06:37:03.013Z,67.43
2018-06-30T06:38:02.978Z,67.23
2018-06-30T06:39:02.964Z,67.53
2018-06-30T06:40:02.947Z,68.27
2018-06-30T06:41:02.934Z,68.87
2018-06-30T06:42:02.938Z,68.27
2018-06-30T06:43:02.925Z,68.60
2018-06-30T06:44:02.906Z,69.31
2018-06-30T06:45:02.891Z,69.31
2018-06-30T06:46:02.886Z,68.84
2018-06-30T06:47:02.881Z,68.74
2018-06-30T06:48:02.859Z,69.24
2018-06-30T06:49:02.887Z,69.21
2018-06-30T06:50:02.835Z,69.08
2018-06-30T06:51:02.871Z,68.47
2018-06-30T06:52:02.829Z,67.86
2018-06-30T06:53:02.911Z,68.47
2018-06-30T06:54:02.795Z,67.66
2018-06-30T06:55:02.784Z,68.27
2018-06-30T06:56:02.772Z,68.37
2018-06-30T06:57:02.777Z,67.76
2018-06-30T06:58:02.752Z,68.27
2018-06-30T06:59:02.741Z,67.66
2018-06-30T07:00:02.741Z,67.06
2018-06-30T07:01:02.758Z,68.37
2018-06-30T07:02:02.721Z,68.07
2018-06-30T07:03:02.731Z,68.47
2018-06-30T07:04:02.687Z,68.33
2018-06-30T07:05:02.671Z,66.93
2018-06-30T07:06:02.664Z,67.02
2018-06-30T07:07:02.665Z,66.59
2018-06-30T07:08:02.639Z,65.65
2018-06-30T07:09:02.629Z,65.22
2018-06-30T07:10:02.618Z,64.92
2018-06-30T07:11:02.607Z,64.92
2018-06-30T07:12:02.616Z,65.32
2018-06-30T07:13:02.668Z,65.42
2018-06-30T07:14:02.572Z,65.32
2018-06-30T07:15:02.562Z,66.13
2018-06-30T07:16:02.553Z,65.55
2018-06-30T07:17:02.556Z,65.78
2018-06-30T07:18:02.532Z,66.12
2018-06-30T07:19:02.527Z,66.72
2018-06-30T07:20:02.509Z,67.13
2018-06-30T07:21:02.502Z,67.46
2018-06-30T07:22:02.499Z,67.26
2018-06-30T07:23:05.357Z,67.16
2018-06-30T07:24:02.466Z,67.46
2018-06-30T07:25:02.470Z,67.66
2018-06-30T07:26:02.444Z,67.36
2018-06-30T07:27:02.448Z,67.36
2018-06-30T07:28:02.421Z,67.66
2018-06-30T07:29:02.416Z,68.27
2018-06-30T07:30:02.398Z,68.47
2018-06-30T07:31:02.390Z,67.43
2018-06-30T07:32:02.390Z,67.23
2018-06-30T07:33:02.504Z,67.33
2018-06-30T07:34:02.959Z,66.52
2018-06-30T07:35:02.523Z,67.13
2018-06-30T07:36:23.609Z,66.19
2018-06-30T07:37:23.705Z,67.19
2018-06-30T07:38:23.583Z,66.59
2018-06-30T07:39:23.574Z,64.78
2018-06-30T07:40:23.564Z,65.29
2018-06-30T07:41:23.551Z,65.39
2018-06-30T07:42:23.550Z,64.89
2018-06-30T07:43:23.528Z,64.51
2018-06-30T07:44:23.515Z,65.01
2018-06-30T07:45:23.505Z,63.95
2018-06-30T07:46:23.498Z,62.85
2018-06-30T07:47:23.711Z,61.44
2018-06-30T07:48:23.473Z,59.80
2018-06-30T07:49:23.460Z,58.67
2018-06-30T07:50:23.493Z,57.34
2018-06-30T07:51:23.440Z,58.94
2018-06-30T07:52:23.439Z,58.69
2018-06-30T07:53:23.421Z,53.85
2018-06-30T07:54:23.409Z,53.94
2018-06-30T07:55:23.393Z,53.82
2018-06-30T07:56:23.384Z,52.09
2018-06-30T07:57:23.479Z,53.94
2018-06-30T07:58:23.361Z,51.29
2018-06-30T07:59:23.352Z,52.44
2018-06-30T08:00:23.339Z,53.64
2018-06-30T08:01:23.328Z,50.62
2018-06-30T08:02:23.381Z,51.72
2018-06-30T08:03:23.305Z,48.75
2018-06-30T08:04:23.294Z,47.68
2018-06-30T08:05:23.283Z,49.57
2018-06-30T08:06:23.278Z,51.89
2018-06-30T08:07:23.399Z,50.92
2018-06-30T08:08:23.248Z,52.69
2018-06-30T08:09:23.239Z,49.77
2018-06-30T08:10:23.230Z,48.20
2018-06-30T08:11:23.217Z,45.14
2018-06-30T08:12:23.218Z,44.89
2018-06-30T08:13:23.194Z,47.67
2018-06-30T08:14:23.183Z,46.38
2018-06-30T08:15:23.174Z,46.64
2018-06-30T08:16:23.164Z,47.75
2018-06-30T08:17:23.182Z,46.92
2018-06-30T08:18:23.139Z,42.95
2018-06-30T08:19:23.131Z,43.33
2018-06-30T08:20:23.120Z,42.67
2018-06-30T08:21:23.106Z,42.15
2018-06-30T08:22:23.127Z,42.71
2018-06-30T08:23:23.084Z,40.90
2018-06-30T08:24:23.074Z,42.13
2018-06-30T08:25:23.064Z,42.41
2018-06-30T08:26:23.054Z,39.59
2018-06-30T08:27:23.040Z,38.50
2018-06-30T08:28:23.039Z,38.28
2018-06-30T08:29:23.027Z,38.64
2018-06-30T08:30:23.015Z,37.39
2018-06-30T08:31:22.996Z,36.98
2018-06-30T08:32:22.994Z,36.77
2018-06-30T08:33:22.988Z,36.54
2018-06-30T08:34:22.964Z,36.15
2018-06-30T08:35:22.953Z,34.58
2018-06-30T08:36:23.015Z,35.55
2018-06-30T08:37:22.937Z,34.76
2018-06-30T08:38:22.936Z,35.06
2018-06-30T08:39:22.910Z,35.02
2018-06-30T08:40:22.899Z,34.01
2018-06-30T08:41:22.899Z,34.18
2018-06-30T08:42:22.884Z,32.42
2018-06-30T08:43:22.891Z,32.65
2018-06-30T08:44:22.861Z,33.24
2018-06-30T08:45:22.846Z,33.04
2018-06-30T08:46:22.836Z,36.05
2018-06-30T08:47:22.821Z,35.14
2018-06-30T08:48:22.836Z,32.73
2018-06-30T08:49:22.805Z,32.80
2018-06-30T08:50:22.793Z,32.87
2018-06-30T08:51:22.778Z,31.47
2018-06-30T08:52:22.767Z,29.79
2018-06-30T08:53:22.767Z,26.43
2018-06-30T08:54:22.746Z,26.13
2018-06-30T08:55:22.751Z,25.14
2018-06-30T08:56:22.732Z,27.61
2018-06-30T08:57:22.715Z,25.62
2018-06-30T08:58:22.713Z,25.72
2018-06-30T08:59:22.691Z,25.92
2018-06-30T09:00:22.685Z,25.72
2018-06-30T09:01:22.674Z,25.02
2018-06-30T09:02:22.660Z,24.21
2018-06-30T09:03:22.659Z,24.32
2018-06-30T09:04:22.637Z,23.84
2018-06-30T09:05:22.627Z,23.75
2018-06-30T09:06:22.668Z,23.16
2018-06-30T09:07:22.604Z,25.10
2018-06-30T09:08:22.608Z,22.93
2018-06-30T09:09:22.585Z,23.04
2018-06-30T09:10:22.578Z,21.77
2018-06-30T09:11:22.563Z,22.96
2018-06-30T09:12:22.621Z,22.96
2018-06-30T09:13:22.550Z,22.96
2018-06-30T09:14:22.545Z,23.37
2018-06-30T09:15:22.524Z,22.78
2018-06-30T09:16:22.505Z,22.69
2018-06-30T09:17:22.495Z,21.69
2018-06-30T09:18:22.493Z,22.46
2018-06-30T09:19:22.473Z,23.15
2018-06-30T09:20:22.513Z,21.77
2018-06-30T09:21:22.451Z,21.26
2018-06-30T09:22:22.440Z,21.33
2018-06-30T09:23:22.439Z,21.72
2018-06-30T09:24:22.420Z,23.57
2018-06-30T09:25:22.408Z,20.51
2018-06-30T09:26:22.396Z,19.62
2018-06-30T09:27:22.387Z,19.84
2018-06-30T09:28:22.388Z,19.84
2018-06-30T09:29:22.363Z,21.53
2018-06-30T09:30:22.353Z,20.64
2018-06-30T09:31:22.341Z,20.04
2018-06-30T09:32:22.330Z,20.04
2018-06-30T09:33:22.330Z,20.43
2018-06-30T09:34:22.315Z,20.64
2018-06-30T09:35:22.298Z,20.25
2018-06-30T09:36:22.286Z,20.64
2018-06-30T09:37:22.277Z,20.82
2018-06-30T09:38:22.275Z,19.06
2018-06-30T09:39:22.253Z,20.23
2018-06-30T09:40:22.245Z,19.86
2018-06-30T09:41:22.239Z,20.84
2018-06-30T09:42:22.226Z,21.03
2018-06-30T09:43:22.221Z,20.73
2018-06-30T09:44:22.243Z,20.64
2018-06-30T09:45:22.188Z,20.75
2018-06-30T09:46:22.179Z,21.07
2018-06-30T09:47:22.172Z,21.78
2018-06-30T09:48:22.175Z,21.80
2018-06-30T09:49:22.145Z,22.92
2018-06-30T09:50:22.132Z,23.46
2018-06-30T09:51:22.132Z,25.89
2018-06-30T09:52:22.112Z,26.13
2018-06-30T09:53:22.113Z,27.35
2018-06-30T09:54:22.092Z,27.97
2018-06-30T09:55:22.080Z,28.20
2018-06-30T09:56:22.067Z,28.73
2018-06-30T09:57:22.056Z,28.85
2018-06-30T09:58:22.084Z,28.27
2018-06-30T09:59:22.036Z,29.77
2018-06-30T10:00:22.026Z,28.58
2018-06-30T10:01:22.013Z,29.58
2018-06-30T10:02:22.005Z,29.80
2018-06-30T10:03:22.005Z,29.41
2018-06-30T10:04:21.979Z,29.61
2018-06-30T10:05:21.970Z,29.81
2018-06-30T10:06:21.959Z,29.31
2018-06-30T10:07:21.950Z,28.41
2018-06-30T10:08:21.950Z,29.11
2018-06-30T10:09:21.932Z,29.31
2018-06-30T10:10:21.914Z,29.93
2018-06-30T10:11:21.904Z,29.93
2018-06-30T10:12:21.908Z,30.22
2018-06-30T10:13:21.894Z,31.62
2018-06-30T10:14:21.873Z,31.32
2018-06-30T10:15:21.871Z,31.54
2018-06-30T10:16:21.852Z,30.44
2018-06-30T10:17:21.837Z,30.14
2018-06-30T10:18:21.858Z,29.24
2018-06-30T10:19:21.821Z,29.65
2018-06-30T10:20:21.806Z,30.35
2018-06-30T10:21:21.808Z,29.35
2018-06-30T10:22:21.782Z,30.26
2018-06-30T10:23:21.786Z,29.45
2018-06-30T10:24:21.764Z,29.25
2018-06-30T10:25:21.751Z,30.27
2018-06-30T10:26:21.743Z,29.36
2018-06-30T10:27:21.730Z,29.86
2018-06-30T10:28:21.723Z,28.86
2018-06-30T10:29:21.741Z,30.47
2018-06-30T10:30:21.698Z,30.35
2018-06-30T10:31:21.778Z,29.57
2018-06-30T10:32:21.675Z,30.57
2018-06-30T10:33:21.666Z,29.27
2018-06-30T10:34:21.664Z,30.57
2018-06-30T10:35:21.642Z,29.97
2018-06-30T10:36:21.637Z,31.17
2018-06-30T10:37:21.624Z,30.57
2018-06-30T10:38:21.610Z,31.17
2018-06-30T10:39:21.609Z,31.27
2018-06-30T10:40:21.591Z,31.17
2018-06-30T10:41:21.577Z,31.97
2018-06-30T10:42:21.650Z,32.47
2018-06-30T10:43:21.556Z,32.87
2018-06-30T10:44:21.571Z,33.28
2018-06-30T10:45:21.532Z,32.67
2018-06-30T10:46:21.523Z,32.35
2018-06-30T10:47:21.528Z,30.95
2018-06-30T10:48:21.499Z,32.06
2018-06-30T10:49:21.500Z,31.35
2018-06-30T10:50:21.479Z,31.56
2018-06-30T10:51:21.468Z,30.95
2018-06-30T10:52:21.464Z,31.37
2018-06-30T10:53:21.462Z,31.47
2018-06-30T10:54:21.445Z,31.77
2018-06-30T10:55:21.469Z,32.07
2018-06-30T10:56:21.414Z,31.37
2018-06-30T10:57:21.402Z,31.77
2018-06-30T10:58:21.391Z,31.77
2018-06-30T10:59:21.393Z,30.98
2018-06-30T11:00:21.395Z,31.47
2018-06-30T11:01:21.360Z,31.27
2018-06-30T11:02:21.348Z,31.79
2018-06-30T11:03:21.341Z,32.07
2018-06-30T11:04:21.474Z,31.57
2018-06-30T11:05:21.316Z,30.77
2018-06-30T11:06:21.309Z,29.86
2018-06-30T11:07:21.293Z,30.36
2018-06-30T11:08:21.282Z,29.77
2018-06-30T11:09:21.281Z,29.86
2018-06-30T11:10:21.260Z,29.47
2018-06-30T11:11:21.253Z,30.57
2018-06-30T11:12:21.273Z,29.78
2018-06-30T11:13:21.233Z,31.17
2018-06-30T11:14:21.228Z,30.57
2018-06-30T11:15:21.231Z,30.87
2018-06-30T11:16:21.196Z,30.15
2018-06-30T11:17:21.215Z,30.97
2018-06-30T11:18:21.191Z,30.07
2018-06-30T11:19:21.175Z,30.67
2018-06-30T11:20:21.152Z,30.36
2018-06-30T11:21:21.144Z,29.75
2018-06-30T11:22:21.169Z,30.67
2018-06-30T11:23:21.121Z,30.27
2018-06-30T11:24:21.120Z,31.27
2018-06-30T11:25:21.097Z,31.37
2018-06-30T11:26:21.086Z,30.97
2018-06-30T11:27:21.074Z,31.47
2018-06-30T11:28:21.067Z,31.15
2018-06-30T11:29:21.125Z,31.87
2018-06-30T11:30:21.042Z,32.76
2018-06-30T11:31:21.045Z,31.56
2018-06-30T11:32:21.020Z,30.74
2018-06-30T11:33:21.009Z,31.24
2018-06-30T11:34:21.008Z,30.34
2018-06-30T11:35:20.991Z,30.34
2018-06-30T11:36:20.975Z,30.84
2018-06-30T11:37:20.965Z,30.24
2018-06-30T11:38:20.956Z,29.85
2018-06-30T11:39:20.954Z,29.75
2018-06-30T11:40:20.953Z,30.55
2018-06-30T11:41:20.925Z,29.75
2018-06-30T11:42:20.910Z,30.05
2018-06-30T11:43:20.901Z,30.35
2018-06-30T11:44:20.907Z,30.65
2018-06-30T11:45:20.878Z,29.55
2018-06-30T11:46:20.867Z,30.05
2018-06-30T11:47:20.859Z,29.75
2018-06-30T11:48:20.846Z,29.95
2018-06-30T11:49:20.844Z,30.26
2018-06-30T11:50:20.890Z,30.55
2018-06-30T11:51:20.811Z,31.76
2018-06-30T11:52:20.801Z,30.35
2018-06-30T11:53:20.790Z,30.35
2018-06-30T11:54:20.801Z,30.26
2018-06-30T11:55:20.768Z,29.75
2018-06-30T11:56:20.759Z,29.55
2018-06-30T11:57:20.747Z,29.75
2018-06-30T11:58:20.737Z,29.75
2018-06-30T11:59:20.737Z,30.15
2018-06-30T12:00:20.716Z,30.24
2018-06-30T12:01:20.706Z,30.54
2018-06-30T12:02:20.697Z,30.32
2018-06-30T12:03:20.756Z,28.64
2018-06-30T12:04:20.681Z,29.03
2018-06-30T12:05:20.659Z,29.43
2018-06-30T12:06:20.652Z,30.24
2018-06-30T12:07:20.648Z,29.74
2018-06-30T12:08:20.627Z,30.94
2018-06-30T12:09:20.645Z,31.12
2018-06-30T12:10:20.627Z,28.74
2018-06-30T12:11:20.593Z,30.04
2018-06-30T12:12:20.594Z,30.24
2018-06-30T12:13:20.574Z,29.93
2018-06-30T12:14:20.571Z,29.12
2018-06-30T12:15:20.550Z,29.32
2018-06-30T12:16:20.541Z,29.82
2018-06-30T12:17:20.528Z,29.03
2018-06-30T12:18:20.520Z,29.84
2018-06-30T12:19:20.547Z,29.14
2018-06-30T12:20:20.497Z,28.53
2018-06-30T12:21:20.502Z,30.74
2018-06-30T12:22:20.472Z,30.24
2018-06-30T12:23:20.467Z,30.04
2018-06-30T12:24:20.471Z,29.24
2018-06-30T12:25:20.441Z,28.94
2018-06-30T12:26:20.430Z,29.34
2018-06-30T12:27:20.419Z,28.64
2018-06-30T12:28:20.407Z,29.53
2018-06-30T12:29:20.418Z,28.94
2018-06-30T12:30:20.455Z,28.64
2018-06-30T12:31:20.374Z,28.84
2018-06-30T12:32:20.443Z,31.44
2018-06-30T12:33:20.354Z,29.94
2018-06-30T12:34:20.342Z,28.44
2018-06-30T12:35:20.344Z,29.43
2018-06-30T12:36:20.321Z,29.12
2018-06-30T12:37:20.311Z,29.32
2018-06-30T12:38:20.299Z,28.22
2018-06-30T12:39:20.287Z,29.32
2018-06-30T12:40:20.288Z,29.43
2018-06-30T12:41:20.266Z,29.24
2018-06-30T12:42:20.256Z,29.14
2018-06-30T12:43:20.248Z,30.24
2018-06-30T12:44:20.237Z,30.32
2018-06-30T12:45:20.232Z,28.92
2018-06-30T12:46:20.212Z,28.82
2018-06-30T12:47:20.201Z,29.22
2018-06-30T12:48:20.191Z,28.42
2018-06-30T12:49:20.179Z,28.32
2018-06-30T12:50:20.181Z,29.14
2018-06-30T12:51:20.160Z,29.12
2018-06-30T12:52:20.148Z,28.84